Terminal Aerodrome Forecast
Issued by NWS Spokane, WA

Home | Current Version | Previous Version | Text Only | Print | Product List | Glossary On
Versions: 1 2 3 4 5 6 7 8 9 10 11 12 13 14 15
000
FTUS46 KOTX 011139
TAFGEG
TAF
KGEG 011139Z 0112/0212 18005KT P6SM -SHRA BKN050 OVC090
     FM011400 19011KT P6SM BKN080 BKN120
     FM011800 20014G18KT P6SM SCT080 SCT120
     FM020400 15005KT P6SM FEW120=

USA.gov is the U.S. government's official web portal to all federal, state and local government web resources and services.